createdAt,value
2017-10-20T00:00:39.021Z,14.47
2017-10-20T00:03:06.789Z,14.23
2017-10-20T00:05:44.318Z,14.23
2017-10-20T00:08:20.842Z,14.67
2017-10-20T00:10:59.367Z,15.70
2017-10-20T00:13:36.943Z,14.10
2017-10-20T00:16:03.662Z,13.20
2017-10-20T00:21:34.629Z,13.27
2017-10-20T00:24:04.630Z,13.10
2017-10-20T00:26:30.707Z,15.33
2017-10-20T00:28:57.714Z,14.97
2017-10-20T00:31:30.833Z,15.07
2017-10-20T00:34:01.018Z,14.47
2017-10-20T00:36:51.490Z,13.43
2017-10-20T00:39:33.349Z,13.37
2017-10-20T00:42:03.008Z,11.90
2017-10-20T00:44:29.049Z,14.30
2017-10-20T00:46:55.067Z,14.33
2017-10-20T00:49:28.099Z,11.67
2017-10-20T00:52:19.761Z,13.50
2017-10-20T00:55:01.422Z,12.27
2017-10-20T00:57:27.510Z,13.07
2017-10-20T00:59:53.443Z,13.83
2017-10-20T01:02:19.418Z,11.93
2017-10-20T01:04:59.137Z,12.60
2017-10-20T01:07:27.165Z,11.90
2017-10-20T01:10:01.610Z,12.53
2017-10-20T01:12:52.636Z,12.80
2017-10-20T01:15:24.754Z,11.23
2017-10-20T01:17:54.670Z,11.33
2017-10-20T01:20:22.657Z,13.57
2017-10-20T01:22:48.677Z,13.17
2017-10-20T01:25:21.075Z,12.67
2017-10-20T01:27:55.489Z,12.43
2017-10-20T01:33:16.608Z,11.90
2017-10-20T01:35:42.523Z,12.87
2017-10-20T01:38:11.931Z,12.67
2017-10-20T01:40:41.018Z,13.27
2017-10-20T01:43:21.658Z,12.53
2017-10-20T01:45:55.346Z,12.37
2017-10-20T01:48:23.258Z,10.40
2017-10-20T01:50:56.486Z,13.33
2017-10-20T01:53:24.219Z,14.90
2017-10-20T01:55:55.578Z,13.30
2017-10-20T01:58:25.003Z,13.40
2017-10-20T02:01:02.299Z,13.30
2017-10-20T02:03:36.753Z,13.70
2017-10-20T02:06:02.677Z,14.70
2017-10-20T02:08:39.621Z,12.83
2017-10-20T02:11:17.318Z,14.03
2017-10-20T02:13:49.160Z,12.17
2017-10-20T02:16:15.182Z,12.37
2017-10-20T02:18:44.426Z,12.50
2017-10-20T02:21:18.956Z,13.57
2017-10-20T02:24:00.758Z,11.10
2017-10-20T02:26:27.769Z,12.70
2017-10-20T02:28:53.776Z,13.17
2017-10-20T02:31:21.750Z,12.93
2017-10-20T02:37:01.599Z,12.90
2017-10-20T02:39:45.591Z,13.77
2017-10-20T02:42:25.151Z,14.00
2017-10-20T02:44:59.447Z,13.33
2017-10-20T02:47:29.224Z,13.97
2017-10-20T02:49:55.246Z,13.83
2017-10-20T02:52:21.184Z,13.33
2017-10-20T02:54:47.223Z,14.20
2017-10-20T02:57:24.313Z,12.67
2017-10-20T02:59:54.626Z,16.47
2017-10-20T03:02:30.912Z,15.57
2017-10-20T03:05:09.470Z,13.43
2017-10-20T03:07:51.050Z,13.70
2017-10-20T03:10:27.361Z,15.10
2017-10-20T03:13:06.706Z,12.30
2017-10-20T03:15:37.206Z,12.03
2017-10-20T03:18:03.284Z,14.40
2017-10-20T03:20:40.143Z,12.60
2017-10-20T03:23:10.682Z,13.00
2017-10-20T03:25:37.395Z,12.50
2017-10-20T03:28:06.699Z,12.60
2017-10-20T03:30:32.626Z,11.97
2017-10-20T03:32:58.653Z,14.27
2017-10-20T03:35:24.674Z,11.60
2017-10-20T03:37:54.711Z,11.67
2017-10-20T03:40:35.417Z,15.40
2017-10-20T03:43:12.172Z,11.47
2017-10-20T03:45:43.489Z,13.03
2017-10-20T03:48:15.977Z,13.07
2017-10-20T03:50:49.172Z,13.63
2017-10-20T03:53:25.774Z,14.60
2017-10-20T03:56:06.142Z,13.63
2017-10-20T03:58:38.695Z,14.93
2017-10-20T04:01:09.292Z,13.67
2017-10-20T04:03:49.005Z,14.20
2017-10-20T04:06:14.918Z,13.40
2017-10-20T04:08:40.910Z,13.27
2017-10-20T04:11:18.533Z,12.93
2017-10-20T04:13:57.998Z,13.03
2017-10-20T04:16:48.799Z,11.40
2017-10-20T04:19:28.409Z,11.87
2017-10-20T04:21:57.452Z,12.90
2017-10-20T04:24:23.473Z,13.07
2017-10-20T04:27:00.202Z,12.10
2017-10-20T04:29:27.347Z,10.70
2017-10-20T04:31:54.018Z,11.07
2017-10-20T04:34:25.742Z,13.67
2017-10-20T04:36:59.341Z,11.80
2017-10-20T04:39:29.942Z,12.13
2017-10-20T04:41:57.914Z,13.10
2017-10-20T04:44:34.657Z,12.03
2017-10-20T04:47:15.426Z,13.40
2017-10-20T04:49:56.299Z,12.47
2017-10-20T04:52:32.826Z,12.07
2017-10-20T04:55:05.418Z,13.50
2017-10-20T04:57:38.826Z,13.53
2017-10-20T05:00:05.847Z,14.53
2017-10-20T05:02:36.476Z,13.87
2017-10-20T05:05:02.515Z,13.20
2017-10-20T05:10:35.326Z,15.53
2017-10-20T05:13:02.338Z,15.00
2017-10-20T05:15:28.350Z,13.10
2017-10-20T05:18:07.659Z,14.43
2017-10-20T05:20:41.526Z,13.90
2017-10-20T05:23:18.929Z,14.10
2017-10-20T05:25:45.642Z,14.37
2017-10-20T05:28:11.669Z,14.20
2017-10-20T05:30:37.686Z,14.27
2017-10-20T05:33:07.731Z,14.67
2017-10-20T05:35:46.999Z,14.83
2017-10-20T05:38:19.463Z,14.60
2017-10-20T05:40:59.126Z,13.40
2017-10-20T05:43:49.633Z,12.70
2017-10-20T05:46:33.321Z,14.97
2017-10-20T05:49:10.102Z,15.90
2017-10-20T05:51:42.879Z,12.87
2017-10-20T05:54:20.468Z,13.10
2017-10-20T05:56:54.060Z,15.40
2017-10-20T05:59:20.831Z,15.20
2017-10-20T06:01:46.783Z,15.73
2017-10-20T06:04:24.143Z,15.53
2017-10-20T06:09:42.878Z,13.00
2017-10-20T06:12:09.829Z,12.50
2017-10-20T06:14:35.858Z,12.90
2017-10-20T06:17:01.779Z,12.37
2017-10-20T06:19:27.805Z,12.20
2017-10-20T06:21:53.825Z,12.30
2017-10-20T06:27:35.410Z,15.57
2017-10-20T06:30:22.102Z,13.13
2017-10-20T06:32:48.043Z,15.73
2017-10-20T06:35:14.097Z,14.60
2017-10-20T06:38:01.481Z,14.80
2017-10-20T06:40:27.391Z,14.70
2017-10-20T06:43:07.435Z,14.50
2017-10-20T06:45:38.006Z,14.80
2017-10-20T06:48:04.060Z,15.27
2017-10-20T06:50:33.953Z,16.07
2017-10-20T06:52:59.993Z,15.60
2017-10-20T06:55:25.998Z,14.40
2017-10-20T06:58:02.393Z,16.50
2017-10-20T07:00:28.317Z,14.77
2017-10-20T07:02:58.418Z,14.70
2017-10-20T07:05:25.385Z,14.30
2017-10-20T07:07:51.393Z,14.40
2017-10-20T07:10:17.341Z,18.80
2017-10-20T07:12:50.453Z,15.43
2017-10-20T07:15:18.202Z,15.30
2017-10-20T07:17:44.297Z,15.13
2017-10-20T07:20:25.962Z,15.10
2017-10-20T07:22:51.954Z,16.30
2017-10-20T07:25:19.761Z,14.90
2017-10-20T07:28:03.615Z,16.80
2017-10-20T07:30:30.610Z,15.80
2017-10-20T07:33:00.845Z,16.13
2017-10-20T07:35:45.435Z,15.10
2017-10-20T07:38:29.254Z,15.30
2017-10-20T07:43:49.414Z,16.93
2017-10-20T07:46:15.444Z,15.13
2017-10-20T07:48:41.515Z,15.50
2017-10-20T07:51:08.543Z,17.40
2017-10-20T07:53:49.771Z,17.80
2017-10-20T07:56:19.341Z,17.40
2017-10-20T07:58:51.826Z,17.30
2017-10-20T08:01:18.876Z,15.07
2017-10-20T08:03:44.774Z,18.13
2017-10-20T08:06:10.724Z,17.40
2017-10-20T08:08:47.766Z,18.17
2017-10-20T08:14:27.830Z,16.97
2017-10-20T08:16:53.898Z,16.40
2017-10-20T08:19:33.394Z,16.97
2017-10-20T08:21:59.461Z,17.80
2017-10-20T08:24:36.661Z,17.37
2017-10-20T08:27:24.228Z,17.80
2017-10-20T08:29:50.265Z,17.57
2017-10-20T08:32:16.341Z,18.50
2017-10-20T08:35:06.871Z,16.60
2017-10-20T08:37:32.814Z,15.83
2017-10-20T08:39:58.846Z,17.00
2017-10-20T08:42:26.813Z,16.50
2017-10-20T08:44:52.871Z,16.93
2017-10-20T08:47:22.976Z,17.53
2017-10-20T08:50:04.594Z,16.83
2017-10-20T08:52:31.639Z,16.13
2017-10-20T08:55:05.640Z,16.50
2017-10-20T08:57:32.395Z,16.70
2017-10-20T09:00:08.567Z,16.70
2017-10-20T09:02:41.867Z,16.57
2017-10-20T09:05:11.306Z,15.53
2017-10-20T09:07:37.370Z,16.03
2017-10-20T09:10:03.480Z,15.87
2017-10-20T09:12:29.551Z,17.20
2017-10-20T09:15:08.840Z,17.50
2017-10-20T09:17:46.380Z,17.30
2017-10-20T09:20:16.070Z,16.90
2017-10-20T09:22:51.506Z,16.27
2017-10-20T09:25:21.009Z,14.33
2017-10-20T09:27:50.659Z,14.47
2017-10-20T09:30:30.109Z,15.57
2017-10-20T09:32:59.689Z,15.77
2017-10-20T09:35:30.368Z,15.33
2017-10-20T09:37:57.382Z,15.00
2017-10-20T09:40:41.647Z,17.57
2017-10-20T09:46:01.173Z,16.50
2017-10-20T09:48:27.374Z,15.03
2017-10-20T09:51:08.850Z,16.83
2017-10-20T09:53:41.286Z,15.40
2017-10-20T09:56:12.011Z,15.80
2017-10-20T09:58:41.346Z,14.80
2017-10-20T10:01:18.841Z,15.37
2017-10-20T10:03:48.547Z,14.07
2017-10-20T10:06:36.426Z,13.57
2017-10-20T10:09:17.141Z,13.77
2017-10-20T10:11:50.542Z,13.00
2017-10-20T10:14:23.041Z,11.20
2017-10-20T10:16:49.056Z,10.90
2017-10-20T10:19:17.009Z,9.13
2017-10-20T10:21:45.710Z,10.20
2017-10-20T10:24:11.641Z,9.20
2017-10-20T10:26:41.025Z,9.23
2017-10-20T10:29:11.504Z,9.60
2017-10-20T10:31:37.437Z,7.90
2017-10-20T10:34:03.415Z,8.87
2017-10-20T10:36:31.094Z,8.80
2017-10-20T10:38:57.749Z,8.70
2017-10-20T10:41:23.678Z,7.70
2017-10-20T10:43:53.418Z,7.70
2017-10-20T10:46:23.865Z,7.60
2017-10-20T10:48:49.817Z,8.20
2017-10-20T10:51:15.819Z,7.63
2017-10-20T10:53:45.313Z,9.20
2017-10-20T10:56:11.238Z,8.30
2017-10-20T10:58:37.170Z,9.10
2017-10-20T11:01:03.089Z,10.23
2017-10-20T11:03:29.025Z,9.43
2017-10-20T11:06:07.426Z,8.20
2017-10-20T11:08:45.614Z,8.60
2017-10-20T11:11:24.017Z,9.17
2017-10-20T11:13:49.950Z,7.90
2017-10-20T11:16:15.874Z,8.30
2017-10-20T11:18:41.825Z,8.33
2017-10-20T11:21:07.754Z,7.60
2017-10-20T11:23:33.772Z,8.70
2017-10-20T11:25:59.703Z,8.60
2017-10-20T11:28:26.751Z,8.60
2017-10-20T11:30:56.182Z,5.20
2017-10-20T11:33:22.131Z,2.63
2017-10-20T11:35:51.244Z,2.50
2017-10-20T11:38:17.165Z,2.00
2017-10-20T11:40:43.098Z,3.80
2017-10-20T11:43:09.053Z,2.73
2017-10-20T11:45:34.979Z,2.80
2017-10-20T11:48:07.250Z,1.97
2017-10-20T11:50:36.053Z,1.43
2017-10-20T11:53:15.385Z,1.67
2017-10-20T11:56:00.867Z,2.10
2017-10-20T11:58:26.877Z,1.67
2017-10-20T12:01:00.157Z,1.60
2017-10-20T12:03:44.872Z,1.80
2017-10-20T12:06:10.799Z,1.40
2017-10-20T12:08:42.062Z,1.20
2017-10-20T12:11:08.099Z,1.60
2017-10-20T12:13:40.186Z,1.70
2017-10-20T12:16:10.392Z,0.90
2017-10-20T12:18:51.101Z,1.20
2017-10-20T12:21:27.559Z,1.43
2017-10-20T12:24:07.206Z,0.57
2017-10-20T12:26:33.227Z,0.87
2017-10-20T12:29:00.226Z,1.57
2017-10-20T12:31:26.999Z,2.30
2017-10-20T12:34:05.143Z,1.73
2017-10-20T12:36:52.706Z,1.63
2017-10-20T12:39:26.151Z,1.60
2017-10-20T12:41:55.762Z,1.20
2017-10-20T12:44:26.059Z,1.57
2017-10-20T12:46:55.682Z,2.03
2017-10-20T12:49:33.086Z,1.10
2017-10-20T12:52:10.615Z,1.63
2017-10-20T12:54:44.989Z,1.20
2017-10-20T12:57:15.621Z,0.97
2017-10-20T12:59:42.355Z,1.87
2017-10-20T13:02:08.384Z,1.20
2017-10-20T13:04:38.606Z,2.10
2017-10-20T13:07:11.416Z,2.90
2017-10-20T13:09:44.895Z,1.57
2017-10-20T13:12:16.455Z,1.83
2017-10-20T13:14:48.058Z,0.80
2017-10-20T13:17:34.875Z,1.10
2017-10-20T13:20:00.874Z,1.40
2017-10-20T13:22:46.358Z,1.50
2017-10-20T13:25:16.103Z,2.27
2017-10-20T13:27:56.846Z,1.80
2017-10-20T13:30:22.885Z,2.40
2017-10-20T13:32:52.932Z,1.90
2017-10-20T13:35:18.943Z,1.93
2017-10-20T13:37:49.925Z,1.40
2017-10-20T13:40:23.394Z,1.83
2017-10-20T13:45:49.625Z,1.87
2017-10-20T13:48:21.126Z,1.47
2017-10-20T13:51:02.404Z,1.37
2017-10-20T13:53:36.861Z,1.40
2017-10-20T13:56:04.988Z,1.73
2017-10-20T13:58:39.870Z,1.80
2017-10-20T14:01:14.361Z,2.00
2017-10-20T14:06:33.321Z,2.00
2017-10-20T14:09:14.824Z,1.90
2017-10-20T14:11:40.785Z,1.63
2017-10-20T14:14:20.794Z,1.60
2017-10-20T14:16:50.372Z,1.70
2017-10-20T14:19:16.306Z,2.00
2017-10-20T14:21:42.968Z,1.60
2017-10-20T14:24:09.638Z,1.70
2017-10-20T14:26:35.567Z,2.20
2017-10-20T14:29:01.594Z,1.20
2017-10-20T14:31:27.542Z,1.90
2017-10-20T14:33:53.498Z,2.03
2017-10-20T14:36:19.418Z,2.03
2017-10-20T14:38:45.359Z,1.63
2017-10-20T14:41:11.285Z,1.73
2017-10-20T14:43:41.417Z,1.47
2017-10-20T14:46:08.123Z,1.97
2017-10-20T14:48:34.058Z,2.00
2017-10-20T14:50:59.979Z,1.60
2017-10-20T14:53:25.898Z,1.80
2017-10-20T14:55:51.806Z,1.53
2017-10-20T14:58:17.731Z,1.70
2017-10-20T15:00:43.644Z,2.00
2017-10-20T15:03:09.565Z,2.27
2017-10-20T15:05:35.473Z,1.60
2017-10-20T15:08:03.129Z,1.33
2017-10-20T15:10:29.057Z,2.80
2017-10-20T15:12:55.022Z,1.57
2017-10-20T15:15:20.946Z,2.00
2017-10-20T15:17:46.857Z,1.90
2017-10-20T15:20:13.536Z,1.90
2017-10-20T15:22:39.441Z,1.83
2017-10-20T15:25:05.378Z,2.40
2017-10-20T15:27:31.291Z,2.17
2017-10-20T15:29:57.946Z,1.50
2017-10-20T15:32:23.883Z,2.67
2017-10-20T15:34:49.798Z,2.03
2017-10-20T15:37:15.735Z,1.80
2017-10-20T15:39:41.698Z,2.10
2017-10-20T15:42:07.634Z,2.70
2017-10-20T15:44:33.565Z,2.40
2017-10-20T15:46:59.499Z,2.10
2017-10-20T15:49:25.419Z,2.30
2017-10-20T15:51:51.337Z,1.50
2017-10-20T15:54:17.998Z,2.10
2017-10-20T15:56:43.910Z,2.33
2017-10-20T15:59:09.856Z,1.90
2017-10-20T16:01:36.538Z,2.30
2017-10-20T16:04:02.486Z,1.43
2017-10-20T16:06:28.394Z,1.77
2017-10-20T16:08:54.330Z,2.57
2017-10-20T16:11:20.239Z,1.60
2017-10-20T16:13:46.186Z,1.80
2017-10-20T16:16:12.108Z,1.73
2017-10-20T16:18:38.015Z,4.00
2017-10-20T16:21:03.940Z,2.47
2017-10-20T16:23:29.858Z,2.80
2017-10-20T16:25:56.552Z,1.37
2017-10-20T16:28:22.449Z,2.10
2017-10-20T16:30:48.357Z,2.43
2017-10-20T16:33:15.018Z,2.60
2017-10-20T16:35:40.949Z,1.90
2017-10-20T16:38:06.885Z,1.70
2017-10-20T16:40:32.809Z,2.00
2017-10-20T16:42:58.734Z,2.40
2017-10-20T16:45:24.670Z,2.13
2017-10-20T16:47:50.606Z,2.70
2017-10-20T16:50:16.533Z,1.83
2017-10-20T16:52:42.456Z,1.70
2017-10-20T16:55:08.391Z,2.13
2017-10-20T16:57:34.316Z,2.70
2017-10-20T17:00:00.255Z,2.57
2017-10-20T17:02:26.190Z,2.00
2017-10-20T17:04:52.117Z,2.53
2017-10-20T17:07:18.055Z,3.50
2017-10-20T17:09:43.969Z,2.73
2017-10-20T17:12:09.901Z,2.37
2017-10-20T17:14:35.847Z,3.27
2017-10-20T17:17:02.585Z,3.10
2017-10-20T17:19:28.535Z,3.00
2017-10-20T17:21:55.202Z,2.47
2017-10-20T17:24:21.154Z,2.03
2017-10-20T17:26:47.116Z,2.40
2017-10-20T17:29:13.049Z,2.23
2017-10-20T17:31:39.027Z,2.07
2017-10-20T17:34:04.963Z,2.50
2017-10-20T17:36:30.901Z,2.03
2017-10-20T17:38:56.819Z,2.50
2017-10-20T17:41:22.745Z,2.63
2017-10-20T17:43:48.658Z,2.33
2017-10-20T17:46:14.575Z,3.70
2017-10-20T17:48:40.532Z,3.23
2017-10-20T17:51:06.455Z,3.03
2017-10-20T17:53:33.380Z,3.13
2017-10-20T17:55:59.318Z,2.50
2017-10-20T17:58:25.230Z,2.40
2017-10-20T18:00:51.186Z,2.77
2017-10-20T18:03:17.131Z,2.43
2017-10-20T18:05:43.054Z,3.03
2017-10-20T18:08:08.973Z,4.07
2017-10-20T18:10:34.916Z,2.60
2017-10-20T18:13:00.909Z,1.87
2017-10-20T18:15:26.814Z,3.10
2017-10-20T18:17:54.469Z,2.93
2017-10-20T18:20:21.136Z,4.23
2017-10-20T18:22:47.046Z,4.07
2017-10-20T18:25:21.258Z,3.77
2017-10-20T18:27:58.630Z,3.07
2017-10-20T18:30:30.820Z,2.70
2017-10-20T18:33:01.101Z,2.20
2017-10-20T18:35:33.441Z,2.87
2017-10-20T18:38:02.891Z,3.03
2017-10-20T18:40:28.818Z,2.33
2017-10-20T18:42:54.842Z,2.50
2017-10-20T18:45:24.903Z,2.43
2017-10-20T18:47:56.569Z,3.23
2017-10-20T18:50:23.294Z,4.43
2017-10-20T18:52:53.083Z,3.00
2017-10-20T18:55:19.082Z,3.37
2017-10-20T18:57:48.824Z,3.80
2017-10-20T19:00:28.327Z,4.30
2017-10-20T19:03:09.281Z,3.53
2017-10-20T19:05:35.200Z,3.77
2017-10-20T19:08:06.220Z,2.73
2017-10-20T19:10:35.725Z,2.47
2017-10-20T19:13:01.748Z,3.10
2017-10-20T19:15:27.807Z,3.57
2017-10-20T19:17:57.994Z,3.20
2017-10-20T19:20:27.429Z,4.50
2017-10-20T19:22:57.741Z,4.20
2017-10-20T19:25:23.826Z,3.50
2017-10-20T19:27:49.795Z,4.17
2017-10-20T19:30:15.744Z,4.10
2017-10-20T19:32:43.490Z,3.20
2017-10-20T19:35:09.431Z,3.30
2017-10-20T19:37:35.458Z,3.93
2017-10-20T19:40:01.680Z,3.43
2017-10-20T19:42:27.616Z,5.47
2017-10-20T19:44:53.777Z,3.20
2017-10-20T19:47:28.151Z,4.07
2017-10-20T19:49:54.058Z,2.70
2017-10-20T19:52:23.729Z,3.70
2017-10-20T19:54:51.515Z,2.90
2017-10-20T19:57:21.699Z,3.60
2017-10-20T19:59:51.246Z,3.40
2017-10-20T20:02:21.439Z,3.50
2017-10-20T20:04:47.427Z,3.37
2017-10-20T20:07:13.754Z,2.87
2017-10-20T20:09:42.970Z,3.23
2017-10-20T20:12:19.409Z,2.90
2017-10-20T20:15:02.918Z,3.70
2017-10-20T20:17:46.790Z,3.23
2017-10-20T20:20:14.817Z,2.87
2017-10-20T20:22:40.848Z,3.53
2017-10-20T20:28:00.979Z,4.50
2017-10-20T20:30:44.946Z,6.00
2017-10-20T20:33:29.989Z,2.90
2017-10-20T20:35:55.930Z,3.07
2017-10-20T20:38:29.159Z,3.97
2017-10-20T20:40:55.186Z,4.60
2017-10-20T20:43:21.258Z,3.60
2017-10-20T20:45:50.968Z,3.20
2017-10-20T20:48:16.888Z,3.60
2017-10-20T20:50:50.169Z,2.73
2017-10-20T20:53:16.178Z,3.07
2017-10-20T20:55:42.201Z,3.20
2017-10-20T20:58:12.146Z,2.47
2017-10-20T21:00:38.874Z,3.10
2017-10-20T21:03:31.701Z,3.03
2017-10-20T21:06:01.325Z,3.23
2017-10-20T21:08:27.373Z,3.30
2017-10-20T21:10:54.027Z,5.30
2017-10-20T21:13:21.784Z,4.57
2017-10-20T21:15:50.857Z,2.23
2017-10-20T21:18:16.889Z,2.90
2017-10-20T21:20:43.027Z,3.40
2017-10-20T21:23:15.454Z,4.60
2017-10-20T21:25:57.078Z,2.80
2017-10-20T21:28:38.550Z,3.80
2017-10-20T21:31:05.310Z,3.60
2017-10-20T21:33:48.606Z,3.80
2017-10-20T21:36:15.530Z,3.20
2017-10-20T21:38:43.466Z,3.50
2017-10-20T21:41:09.511Z,2.60
2017-10-20T21:43:36.149Z,4.90
2017-10-20T21:49:01.922Z,4.00
2017-10-20T21:51:35.473Z,3.23
2017-10-20T21:54:06.118Z,4.30
2017-10-20T21:56:32.198Z,4.30
2017-10-20T21:59:02.282Z,3.73
2017-10-20T22:01:35.670Z,4.43
2017-10-20T22:04:12.967Z,3.47
2017-10-20T22:06:41.727Z,3.70
2017-10-20T22:09:07.746Z,2.90
2017-10-20T22:11:42.210Z,3.03
2017-10-20T22:14:17.695Z,4.27
2017-10-20T22:16:47.343Z,4.47
2017-10-20T22:19:15.325Z,5.23
2017-10-20T22:21:43.998Z,3.73
2017-10-20T22:24:10.027Z,4.27
2017-10-20T22:26:35.978Z,5.70
2017-10-20T22:29:07.402Z,4.50
2017-10-20T22:31:33.327Z,5.23
2017-10-20T22:34:06.341Z,4.77
2017-10-20T22:36:33.006Z,4.00
2017-10-20T22:39:03.682Z,5.00
2017-10-20T22:41:29.629Z,4.40
2017-10-20T22:43:55.664Z,3.97
2017-10-20T22:46:21.669Z,3.20
2017-10-20T22:48:53.474Z,3.93
2017-10-20T22:51:35.598Z,4.30
2017-10-20T22:54:05.158Z,4.57
2017-10-20T22:56:31.173Z,3.80
2017-10-20T22:59:01.127Z,4.30
2017-10-20T23:01:27.033Z,2.97
2017-10-20T23:03:56.850Z,3.40
2017-10-20T23:06:28.597Z,3.27
2017-10-20T23:08:55.578Z,4.27
2017-10-20T23:11:23.342Z,3.60
2017-10-20T23:13:51.350Z,3.40
2017-10-20T23:16:28.007Z,3.20
2017-10-20T23:18:55.744Z,3.50
2017-10-20T23:21:21.768Z,3.60
2017-10-20T23:23:54.378Z,3.87
2017-10-20T23:26:21.041Z,4.07
2017-10-20T23:28:53.113Z,4.17
2017-10-20T23:31:24.814Z,3.03
2017-10-20T23:33:51.842Z,3.73
2017-10-20T23:36:35.698Z,2.90
2017-10-20T23:39:01.646Z,3.20
2017-10-20T23:41:27.661Z,3.00
2017-10-20T23:43:54.630Z,5.10
2017-10-20T23:46:22.597Z,4.10
2017-10-20T23:48:48.638Z,3.20
2017-10-20T23:51:18.753Z,3.07
2017-10-20T23:53:44.794Z,3.37
2017-10-20T23:56:11.087Z,3.60
2017-10-20T23:58:41.034Z,3.10
